Tobias Barreto, Brazil
Current Conditions -  °F | °C
As of 9:00 AM on Saturday 25 Oct 2014 (Local Time) from SBAR Reporting Station
Scattered Clouds Scattered Clouds  
Wind Chill: 81°   Ceiling: Unl
Heat Index: 84°   Visibility: 6mi
Dew Point: 70°   Wind: 10mph
Humidity: 70%   Direction: 110°ESE
Pressure: 29.97"   Gusts: NA
Location:  11.18°S, 38°W
Report Text: SBAR 251200Z 11009KT 9999 SCT015 27/21 Q1015
Loading
Personal Weather Stations






























Interactive Weather Map
Tropical Storm Tracking
New forecast layout! Learn more

10-Day Weather Forecast

Advertisements
Track Severe Weather on mobile